Time;durP1;ratioP1;P1;durP2;ratioP2;P2;SDS_P1;SDS_P2;PMS_P1;PMS_P2;Temp;Humidity;BMP_temperature;BMP_pressure;BME280_temperature;BME280_humidity;BME280_pressure;Samples;Min_cycle;Max_cycle;Signal;HPM_P1;HPM_P2
2022/07/02 00:00:02;;;;;;;0.40;0.40;;;15.90;99.90;;;;;;4437479;32;20308;-71
2022/07/02 00:02:32;;;;;;;0.70;0.68;;;15.80;99.90;;;;;;4438089;32;20519;-71
2022/07/02 00:05:02;;;;;;;0.50;0.50;;;16.00;99.90;;;;;;4443294;32;20119;-71
2022/07/02 00:07:28;;;;;;;0.45;0.45;;;16.10;99.90;;;;;;4441719;32;20095;-71
2022/07/02 00:09:55;;;;;;;0.40;0.40;;;16.00;99.90;;;;;;4446603;32;20081;-71
2022/07/02 00:12:22;;;;;;;0.52;0.52;;;16.00;99.90;;;;;;4437611;32;20695;-71
2022/07/02 00:14:52;;;;;;;1.05;0.40;;;16.10;99.90;;;;;;4443510;32;20089;-71
2022/07/02 00:17:17;;;;;;;0.65;0.60;;;16.00;99.90;;;;;;4441801;32;20076;-71
2022/07/02 00:19:43;;;;;;;0.43;0.40;;;16.00;99.90;;;;;;4441711;32;20127;-71
2022/07/02 00:22:10;;;;;;;5.75;0.68;;;16.00;99.90;;;;;;4420836;32;20557;-71
2022/07/02 00:24:39;;;;;;;2.28;0.90;;;15.90;99.90;;;;;;4423566;32;20417;-71
2022/07/02 00:27:07;;;;;;;5.40;1.20;;;16.00;99.90;;;;;;4436674;32;20077;-71
2022/07/02 00:29:43;;;;;;;0.45;0.45;;;16.10;99.90;;;;;;4439238;32;20089;-71
2022/07/02 00:32:09;;;;;;;0.60;0.60;;;16.00;99.90;;;;;;4436514;32;20071;-71
2022/07/02 00:34:38;;;;;;;0.62;0.50;;;15.90;99.90;;;;;;4441876;32;20119;-71
2022/07/02 00:37:06;;;;;;;6.75;2.05;;;15.80;99.90;;;;;;4444327;32;20073;-71
2022/07/02 00:39:31;;;;;;;1.12;0.50;;;15.70;99.90;;;;;;4443261;32;20164;-71
2022/07/02 00:41:59;;;;;;;0.50;0.50;;;15.80;99.90;;;;;;4440794;32;20101;-71
2022/07/02 00:44:26;;;;;;;0.55;0.55;;;15.80;99.90;;;;;;4441949;32;20068;-71
2022/07/02 00:46:53;;;;;;;2.17;0.57;;;15.70;99.90;;;;;;4439829;32;20077;-71
2022/07/02 00:49:20;;;;;;;0.37;0.37;;;15.70;99.90;;;;;;4437308;32;20073;-71
2022/07/02 00:51:46;;;;;;;0.50;0.50;;;15.70;99.90;;;;;;4428352;32;20175;-71
2022/07/02 00:54:11;;;;;;;0.50;0.50;;;15.80;99.90;;;;;;4421930;32;20544;-71
2022/07/02 00:56:37;;;;;;;1.08;0.50;;;15.80;99.90;;;;;;4446324;32;20140;-71
2022/07/02 00:59:04;;;;;;;0.30;0.30;;;15.70;99.90;;;;;;4444338;32;20100;-71
2022/07/02 01:01:30;;;;;;;1.48;0.50;;;15.50;99.90;;;;;;4442190;32;20085;-71
2022/07/02 01:04:00;;;;;;;0.32;0.32;;;15.50;99.90;;;;;;4443640;32;20088;-71
2022/07/02 01:06:26;;;;;;;1.33;0.87;;;15.50;99.90;;;;;;4443206;32;20076;-71
2022/07/02 01:10:27;;;;;;;0.30;0.30;;;15.50;99.90;;;;;;4436414;32;20057;-71
2022/07/02 01:11:43;;;;;;;0.57;0.57;;;15.60;99.90;;;;;;4435087;32;20111;-71
2022/07/02 01:14:09;;;;;;;0.70;0.62;;;15.50;99.90;;;;;;4436269;32;20060;-71
2022/07/02 01:16:34;;;;;;;0.47;0.47;;;15.50;99.90;;;;;;4439343;32;20514;-71
2022/07/02 01:19:00;;;;;;;0.57;0.50;;;15.40;99.90;;;;;;4436402;32;20064;-71
2022/07/02 01:21:25;;;;;;;0.50;0.50;;;15.50;99.90;;;;;;4429086;32;20080;-71
2022/07/02 01:23:51;;;;;;;1.08;0.80;;;15.50;99.90;;;;;;4419559;32;20097;-71
2022/07/02 01:26:16;;;;;;;0.45;0.45;;;15.50;99.90;;;;;;4432387;32;20131;-71
2022/07/02 01:28:42;;;;;;;0.70;0.70;;;15.60;99.90;;;;;;4438148;32;20081;-71
2022/07/02 01:31:07;;;;;;;0.57;0.55;;;15.50;99.90;;;;;;4432899;32;84021;-71
2022/07/02 01:33:33;;;;;;;0.50;0.50;;;15.40;99.90;;;;;;4438777;32;20123;-71
2022/07/02 01:35:58;;;;;;;1.12;0.80;;;15.20;99.90;;;;;;4443729;32;20053;-71
2022/07/02 01:38:24;;;;;;;0.52;0.52;;;15.20;99.90;;;;;;4439317;32;20425;-71
2022/07/02 01:40:49;;;;;;;0.50;0.50;;;15.20;99.90;;;;;;4437380;32;20077;-71
2022/07/02 01:43:14;;;;;;;0.40;0.40;;;15.20;99.90;;;;;;4441064;32;20065;-71
2022/07/02 01:45:40;;;;;;;0.32;0.32;;;15.40;99.90;;;;;;4440451;32;20102;-71
2022/07/02 01:48:05;;;;;;;0.50;0.50;;;15.30;99.90;;;;;;4439870;32;20080;-71
2022/07/02 01:50:35;;;;;;;0.37;0.37;;;15.20;99.90;;;;;;4438962;32;20387;-71
2022/07/02 01:53:00;;;;;;;0.73;0.73;;;15.10;99.90;;;;;;4420784;32;20429;-71
2022/07/02 01:55:26;;;;;;;0.40;0.40;;;15.10;99.90;;;;;;4438503;32;20120;-71
2022/07/02 01:57:52;;;;;;;0.40;0.40;;;15.00;99.90;;;;;;4436534;32;20453;-71
2022/07/02 02:00:17;;;;;;;0.57;0.52;;;14.90;99.90;;;;;;4437489;32;20509;-71
2022/07/02 02:02:43;;;;;;;1.23;0.70;;;15.00;99.90;;;;;;4437620;32;20097;-71
2022/07/02 02:05:09;;;;;;;0.80;0.62;;;14.90;99.90;;;;;;4439002;32;20124;-71
2022/07/02 02:07:34;;;;;;;0.47;0.47;;;14.80;99.90;;;;;;4435008;32;20208;-71
2022/07/02 02:09:59;;;;;;;0.60;0.60;;;14.90;99.90;;;;;;4436605;32;20800;-71
2022/07/02 02:12:25;;;;;;;0.50;0.50;;;14.80;99.90;;;;;;4437019;32;20068;-71
2022/07/02 02:14:51;;;;;;;0.50;0.50;;;14.80;99.90;;;;;;4440905;32;20057;-71
2022/07/02 02:17:16;;;;;;;0.77;0.77;;;14.90;99.90;;;;;;4440530;32;20126;-71
2022/07/02 02:19:42;;;;;;;0.40;0.40;;;14.90;99.90;;;;;;4440568;32;20089;-71
2022/07/02 02:22:07;;;;;;;0.62;0.62;;;15.00;99.90;;;;;;4422550;32;20085;-71
2022/07/02 02:24:33;;;;;;;0.55;0.50;;;15.10;99.90;;;;;;4419668;32;20465;-71
2022/07/02 02:26:59;;;;;;;1.25;0.70;;;15.00;99.90;;;;;;4439844;32;20073;-71
2022/07/02 02:29:24;;;;;;;0.45;0.45;;;15.00;99.90;;;;;;4437338;32;20080;-71
2022/07/02 02:31:50;;;;;;;0.40;0.40;;;15.00;99.90;;;;;;4437147;32;20109;-71
2022/07/02 02:34:15;;;;;;;0.60;0.55;;;15.00;99.90;;;;;;4442932;32;20090;-71
2022/07/02 02:36:41;;;;;;;0.47;0.47;;;14.90;99.90;;;;;;4439747;32;20101;-71
2022/07/02 02:39:06;;;;;;;0.47;0.43;;;14.80;99.90;;;;;;4435775;32;20060;-71
2022/07/02 02:41:32;;;;;;;0.98;0.70;;;14.80;99.90;;;;;;4439905;32;20597;-71
2022/07/02 02:43:57;;;;;;;0.50;0.50;;;14.70;99.90;;;;;;4440831;32;20070;-71
2022/07/02 02:46:23;;;;;;;0.93;0.93;;;14.70;99.90;;;;;;4445430;32;20129;-71
2022/07/02 02:48:48;;;;;;;1.25;0.70;;;14.70;99.90;;;;;;4435125;32;20168;-70
2022/07/02 02:51:15;;;;;;;1.30;0.95;;;14.70;99.90;;;;;;4433052;32;20104;-70
2022/07/02 02:53:42;;;;;;;1.85;0.50;;;14.70;99.90;;;;;;4416055;32;20065;-70
2022/07/02 02:56:08;;;;;;;2.05;0.68;;;14.80;99.90;;;;;;4437885;32;20154;-71
2022/07/02 02:58:34;;;;;;;0.73;0.70;;;14.90;99.90;;;;;;4438899;32;20097;-70
2022/07/02 03:01:00;;;;;;;1.33;0.82;;;14.90;99.90;;;;;;4437975;32;20073;-70
2022/07/02 03:03:26;;;;;;;0.62;0.50;;;14.90;99.90;;;;;;4438030;32;20065;-70
2022/07/02 03:05:52;;;;;;;2.30;0.47;;;14.90;99.90;;;;;;4448488;32;20064;-71
2022/07/02 03:08:17;;;;;;;0.47;0.47;;;14.90;99.90;;;;;;4442451;32;20077;-70
2022/07/02 03:10:43;;;;;;;0.35;0.35;;;14.90;99.90;;;;;;4440516;32;20093;-71
2022/07/02 03:13:08;;;;;;;4.37;1.12;;;14.80;99.90;;;;;;4443495;32;20129;-71
2022/07/02 03:15:35;;;;;;;0.50;0.50;;;14.80;99.90;;;;;;4443751;32;20101;-71
2022/07/02 03:18:01;;;;;;;0.60;0.60;;;14.80;99.90;;;;;;4438408;32;20065;-71
2022/07/02 03:20:26;;;;;;;1.05;0.93;;;14.80;99.90;;;;;;4439063;32;20445;-70
2022/07/02 03:22:52;;;;;;;1.48;1.35;;;14.90;99.90;;;;;;4420735;32;20525;-70
2022/07/02 03:25:17;;;;;;;0.50;0.50;;;14.80;99.90;;;;;;4434190;32;20068;-70
2022/07/02 03:27:43;;;;;;;1.02;0.75;;;14.80;99.90;;;;;;4440465;32;20069;-70
2022/07/02 03:30:09;;;;;;;0.62;0.57;;;14.70;99.90;;;;;;4439184;32;20148;-70
2022/07/02 03:32:34;;;;;;;0.50;0.50;;;14.70;99.90;;;;;;4440156;32;20089;-70
2022/07/02 03:35:00;;;;;;;0.45;0.45;;;14.80;99.90;;;;;;4441439;32;20081;-70
2022/07/02 03:37:28;;;;;;;0.50;0.50;;;14.90;99.90;;;;;;4439772;32;20076;-70
2022/07/02 03:39:54;;;;;;;0.43;0.43;;;14.70;99.90;;;;;;4442843;32;20109;-70
2022/07/02 03:42:20;;;;;;;0.80;0.77;;;14.70;99.90;;;;;;4440703;32;20093;-70
2022/07/02 03:44:45;;;;;;;10.05;0.47;;;14.70;99.90;;;;;;4441934;32;20182;-70
2022/07/02 03:47:11;;;;;;;1.92;0.60;;;14.80;99.90;;;;;;4441784;32;20072;-70
2022/07/02 03:49:37;;;;;;;0.47;0.47;;;14.80;99.90;;;;;;4444315;32;20081;-71
2022/07/02 03:52:03;;;;;;;1.02;0.90;;;14.80;99.90;;;;;;4424032;32;20467;-70
2022/07/02 03:54:28;;;;;;;0.50;0.50;;;14.90;99.90;;;;;;4420457;32;21008;-71
2022/07/02 03:56:54;;;;;;;0.73;0.73;;;14.90;99.90;;;;;;4439046;32;20178;-70
2022/07/02 03:59:19;;;;;;;0.50;0.50;;;14.90;99.90;;;;;;4441733;32;20484;-70
2022/07/02 04:01:45;;;;;;;3.42;1.27;;;14.90;99.90;;;;;;4438699;32;20161;-70
2022/07/02 04:04:11;;;;;;;0.50;0.50;;;14.80;99.90;;;;;;4443538;32;20104;-71
2022/07/02 04:06:36;;;;;;;0.62;0.60;;;14.80;99.90;;;;;;4434734;32;20076;-71
2022/07/02 04:09:02;;;;;;;0.45;0.45;;;14.80;99.90;;;;;;4440564;32;20073;-71
2022/07/02 04:11:27;;;;;;;5.68;2.17;;;14.80;99.90;;;;;;4438698;32;20501;-71
2022/07/02 04:13:53;;;;;;;0.70;0.68;;;14.80;99.90;;;;;;4442853;32;20462;-70
2022/07/02 04:16:18;;;;;;;0.40;0.40;;;14.80;99.90;;;;;;4446946;32;20061;-70
2022/07/02 04:18:44;;;;;;;1.02;0.88;;;14.90;99.90;;;;;;4439004;32;20532;-70
2022/07/02 04:21:09;;;;;;;1.55;0.68;;;14.80;99.90;;;;;;4432094;32;20171;-70
2022/07/02 04:23:35;;;;;;;0.80;0.70;;;14.90;99.90;;;;;;4420571;32;20069;-70
2022/07/02 04:26:00;;;;;;;1.60;1.05;;;15.00;99.90;;;;;;4442843;32;20069;-71
2022/07/02 04:28:26;;;;;;;0.93;0.60;;;15.00;99.90;;;;;;4442583;32;20127;-71
2022/07/02 04:30:51;;;;;;;0.45;0.45;;;14.90;99.90;;;;;;4442041;32;20089;-71
2022/07/02 04:33:17;;;;;;;0.50;0.50;;;15.00;99.90;;;;;;4439908;32;20099;-71
2022/07/02 04:35:42;;;;;;;0.80;0.60;;;15.00;99.90;;;;;;4444133;32;20077;-70
2022/07/02 04:38:08;;;;;;;1.48;0.65;;;15.00;99.90;;;;;;4439556;32;20096;-70
2022/07/02 04:40:33;;;;;;;0.40;0.40;;;15.10;99.90;;;;;;4439539;32;20103;-71
2022/07/02 04:42:59;;;;;;;0.68;0.68;;;15.20;99.90;;;;;;4438958;32;20999;-71
2022/07/02 04:45:24;;;;;;;1.40;0.80;;;15.20;99.90;;;;;;4444134;32;20530;-70
2022/07/02 04:47:50;;;;;;;1.85;0.80;;;15.20;99.90;;;;;;4437277;32;20423;-70
2022/07/02 04:50:16;;;;;;;1.17;0.73;;;15.30;99.90;;;;;;4439337;32;20081;-70
2022/07/02 04:52:41;;;;;;;2.53;1.25;;;15.40;99.90;;;;;;4419278;32;20303;-71
2022/07/02 04:55:07;;;;;;;0.77;0.65;;;15.50;99.90;;;;;;4427288;32;20516;-70
2022/07/02 04:57:32;;;;;;;6.68;1.00;;;15.40;99.90;;;;;;4442726;32;20088;-70
2022/07/02 04:59:58;;;;;;;0.40;0.40;;;15.40;99.90;;;;;;4441423;32;20078;-70
2022/07/02 05:02:23;;;;;;;1.33;0.95;;;15.50;99.90;;;;;;4434833;32;20081;-70
2022/07/02 05:04:49;;;;;;;0.85;0.82;;;15.60;99.90;;;;;;4440566;32;20072;-70
2022/07/02 05:07:14;;;;;;;2.95;0.80;;;15.60;99.90;;;;;;4441051;32;20509;-70
2022/07/02 05:09:40;;;;;;;0.82;0.82;;;15.70;99.90;;;;;;4439614;32;20119;-70
2022/07/02 05:12:06;;;;;;;0.60;0.60;;;15.70;99.90;;;;;;4441322;32;20441;-71
2022/07/02 05:14:31;;;;;;;0.50;0.50;;;15.80;99.90;;;;;;4437301;32;20508;-71
2022/07/02 05:16:57;;;;;;;1.27;0.80;;;15.80;99.90;;;;;;4441626;32;20105;-70
2022/07/02 05:19:22;;;;;;;0.88;0.60;;;15.90;99.90;;;;;;4442062;32;20078;-70
2022/07/02 05:21:48;;;;;;;2.75;0.82;;;15.90;99.90;;;;;;4430699;32;20403;-70
2022/07/02 05:24:13;;;;;;;0.40;0.40;;;16.00;99.90;;;;;;4420867;32;20073;-70
2022/07/02 05:26:39;;;;;;;0.55;0.55;;;16.10;99.90;;;;;;4439357;32;20133;-70
2022/07/02 05:29:04;;;;;;;0.50;0.50;;;16.10;99.90;;;;;;4436591;32;20427;-70
2022/07/02 05:31:30;;;;;;;0.90;0.80;;;16.20;99.90;;;;;;4442770;32;20094;-71
2022/07/02 05:33:55;;;;;;;0.52;0.52;;;16.10;99.90;;;;;;4439278;32;20107;-70
2022/07/02 05:36:20;;;;;;;25.35;2.25;;;16.20;99.90;;;;;;4441729;32;20089;-70
2022/07/02 05:38:46;;;;;;;1.00;0.68;;;16.20;99.90;;;;;;4437998;32;20481;-70
2022/07/02 05:41:11;;;;;;;0.62;0.62;;;16.30;99.90;;;;;;4440356;32;20097;-70
2022/07/02 05:43:37;;;;;;;1.23;1.12;;;16.40;99.90;;;;;;4442558;32;20159;-70
2022/07/02 05:46:02;;;;;;;0.62;0.62;;;16.50;99.90;;;;;;4445784;32;20485;-70
2022/07/02 05:48:28;;;;;;;3.15;0.75;;;16.50;99.90;;;;;;4441455;32;20116;-71
2022/07/02 05:50:53;;;;;;;0.90;0.68;;;16.50;99.90;;;;;;4432656;32;20513;-70
2022/07/02 05:53:19;;;;;;;0.40;0.40;;;16.60;99.90;;;;;;4416707;32;20088;-70
2022/07/02 05:55:44;;;;;;;0.70;0.70;;;16.70;99.90;;;;;;4431712;32;20065;-70
2022/07/02 05:58:12;;;;;;;0.47;0.47;;;16.80;99.90;;;;;;4441566;32;20065;-71
2022/07/02 06:00:38;;;;;;;0.65;0.52;;;16.90;99.90;;;;;;4445549;32;20618;-71
2022/07/02 06:03:03;;;;;;;0.30;0.30;;;17.00;99.90;;;;;;4439223;32;20197;-70
2022/07/02 06:07:44;;;;;;;0.57;0.57;;;17.10;99.90;;;;;;4441799;32;20080;-71
2022/07/02 06:08:14;;;;;;;0.50;0.50;;;17.20;99.90;;;;;;4431778;32;20100;-70
2022/07/02 06:10:39;;;;;;;0.40;0.40;;;17.30;99.90;;;;;;4441191;32;20141;-71
2022/07/02 06:13:05;;;;;;;0.75;0.70;;;17.40;99.90;;;;;;4439014;32;20069;-71
2022/07/02 06:15:30;;;;;;;0.40;0.40;;;17.50;99.90;;;;;;4439478;32;20065;-70
2022/07/02 06:18:00;;;;;;;0.40;0.40;;;17.60;99.90;;;;;;4444338;32;20069;-71
2022/07/02 06:20:25;;;;;;;0.45;0.40;;;17.70;99.90;;;;;;4437463;32;20068;-71
2022/07/02 06:22:51;;;;;;;0.65;0.57;;;17.70;99.90;;;;;;4421116;32;20099;-71
2022/07/02 06:25:16;;;;;;;2.03;1.02;;;17.80;99.90;;;;;;4425370;32;20092;-71
2022/07/02 06:27:42;;;;;;;0.45;0.45;;;17.80;99.90;;;;;;4435884;32;20065;-70
2022/07/02 06:30:08;;;;;;;1.73;0.50;;;17.90;99.90;;;;;;4440944;32;20329;-71
2022/07/02 06:32:33;;;;;;;0.75;0.50;;;17.90;99.90;;;;;;4437882;32;20524;-70
2022/07/02 06:34:59;;;;;;;0.75;0.60;;;18.00;99.90;;;;;;4439560;32;20070;-70
2022/07/02 06:37:26;;;;;;;1.75;0.98;;;18.10;99.90;;;;;;4439498;32;20489;-71
2022/07/02 06:39:51;;;;;;;0.40;0.40;;;18.20;99.90;;;;;;4438914;32;20064;-71
2022/07/02 06:42:18;;;;;;;0.55;0.55;;;18.20;99.90;;;;;;4441640;32;20608;-71
2022/07/02 06:44:45;;;;;;;0.40;0.40;;;18.20;99.90;;;;;;4440959;32;20490;-71
2022/07/02 06:47:10;;;;;;;0.40;0.40;;;18.30;99.90;;;;;;4446128;32;20496;-71
2022/07/02 06:49:36;;;;;;;0.40;0.40;;;18.40;99.90;;;;;;4439593;32;20161;-71
2022/07/02 06:52:01;;;;;;;0.40;0.40;;;18.50;99.90;;;;;;4428519;32;20481;-70
2022/07/02 06:54:27;;;;;;;0.35;0.35;;;18.50;99.90;;;;;;4422572;32;20141;-71
2022/07/02 06:56:52;;;;;;;0.35;0.35;;;18.60;99.90;;;;;;4449247;32;20093;-71
2022/07/02 06:59:18;;;;;;;0.45;0.45;;;18.80;99.90;;;;;;4444374;32;20073;-70
2022/07/02 07:01:43;;;;;;;0.57;0.57;;;18.90;99.90;;;;;;4446380;32;20175;-71
2022/07/02 07:04:09;;;;;;;0.52;0.52;;;18.90;99.90;;;;;;4451575;32;20132;-70
2022/07/02 07:06:35;;;;;;;0.30;0.30;;;18.90;99.90;;;;;;4448927;32;20132;-70
2022/07/02 07:09:01;;;;;;;0.40;0.40;;;19.00;99.90;;;;;;4446008;32;20565;-71
2022/07/02 07:11:26;;;;;;;0.37;0.37;;;19.00;99.90;;;;;;4444221;32;20061;-71
2022/07/02 07:13:52;;;;;;;1.85;1.37;;;19.10;99.90;;;;;;4441700;32;20081;-71
2022/07/02 07:16:17;;;;;;;0.50;0.50;;;19.20;99.90;;;;;;4439806;32;20081;-71
2022/07/02 07:18:47;;;;;;;0.30;0.30;;;19.30;99.90;;;;;;4439385;32;20167;-71
2022/07/02 07:21:12;;;;;;;0.35;0.35;;;19.40;99.90;;;;;;4439190;32;20181;-70
2022/07/02 07:23:37;;;;;;;0.37;0.37;;;19.50;99.90;;;;;;4421807;32;20073;-70
2022/07/02 07:26:03;;;;;;;0.28;0.28;;;19.70;99.90;;;;;;4439083;32;20073;-71
2022/07/02 07:28:28;;;;;;;0.37;0.37;;;19.90;99.90;;;;;;4447095;32;20510;-71
2022/07/02 07:30:54;;;;;;;6.78;0.77;;;20.00;99.90;;;;;;4443055;32;20069;-71
2022/07/02 07:33:20;;;;;;;0.37;0.37;;;20.20;99.90;;;;;;4436819;32;20430;-71
2022/07/02 07:35:45;;;;;;;0.28;0.28;;;20.20;99.90;;;;;;4449198;32;20065;-71
2022/07/02 07:38:11;;;;;;;0.30;0.30;;;20.30;99.90;;;;;;4444171;32;20142;-71
2022/07/02 07:40:37;;;;;;;0.30;0.30;;;20.40;99.90;;;;;;4440115;32;20069;-71
2022/07/02 07:43:03;;;;;;;0.40;0.40;;;20.40;99.90;;;;;;4445367;32;20132;-71
2022/07/02 07:45:29;;;;;;;0.88;0.65;;;20.30;99.90;;;;;;4439031;32;20057;-71
2022/07/02 07:47:54;;;;;;;0.32;0.32;;;20.40;99.90;;;;;;4446754;32;20112;-71
2022/07/02 07:50:20;;;;;;;0.30;0.30;;;20.60;99.90;;;;;;4442600;32;20480;-71
2022/07/02 07:52:45;;;;;;;0.30;0.30;;;20.70;99.90;;;;;;4420670;32;20094;-70
2022/07/02 07:55:11;;;;;;;0.30;0.30;;;20.80;99.90;;;;;;4428462;32;20140;-71
2022/07/02 07:57:36;;;;;;;0.20;0.20;;;21.00;99.90;;;;;;4443093;32;20089;-71
2022/07/02 08:00:03;;;;;;;0.40;0.40;;;21.00;99.90;;;;;;4445541;32;20082;-71
2022/07/02 08:02:29;;;;;;;0.35;0.35;;;21.10;99.90;;;;;;4443197;32;20144;-71
2022/07/02 08:04:55;;;;;;;0.22;0.22;;;21.20;99.90;;;;;;4444779;32;20088;-72
2022/07/02 08:07:20;;;;;;;0.35;0.35;;;21.40;99.90;;;;;;4440063;32;20832;-71
2022/07/02 08:09:52;;;;;;;0.50;0.50;;;21.50;99.90;;;;;;4434158;32;20069;-71
2022/07/02 08:12:20;;;;;;;2.08;0.25;;;21.60;99.90;;;;;;4442435;32;20068;-71
2022/07/02 08:14:45;;;;;;;0.70;0.62;;;21.90;99.90;;;;;;4439785;32;20513;-71
2022/07/02 08:17:11;;;;;;;0.47;0.47;;;22.00;99.90;;;;;;4438190;32;20085;-71
2022/07/02 08:19:36;;;;;;;0.20;0.20;;;22.10;99.90;;;;;;4438479;32;20451;-71
2022/07/02 08:22:03;;;;;;;0.47;0.40;;;22.30;99.90;;;;;;4422781;32;20572;-71
2022/07/02 08:24:29;;;;;;;2.10;0.62;;;22.40;99.90;;;;;;4421248;32;20073;-71
2022/07/02 08:26:55;;;;;;;0.52;0.45;;;22.40;99.50;;;;;;4444314;32;20485;-71
2022/07/02 08:29:20;;;;;;;1.45;0.40;;;22.40;99.00;;;;;;4445314;32;20056;-71
2022/07/02 08:31:46;;;;;;;0.40;0.40;;;22.50;98.60;;;;;;4446352;32;20158;-71
2022/07/02 08:34:11;;;;;;;0.10;0.10;;;22.40;97.80;;;;;;4442002;32;20073;-71
2022/07/02 08:36:37;;;;;;;0.30;0.30;;;22.50;97.60;;;;;;4444043;32;21280;-71
2022/07/02 08:39:02;;;;;;;0.20;0.20;;;22.60;96.90;;;;;;4438743;32;20117;-71
2022/07/02 08:41:29;;;;;;;0.40;0.40;;;22.60;97.00;;;;;;4439564;32;20175;-71
2022/07/02 08:43:56;;;;;;;0.98;0.73;;;22.30;97.80;;;;;;4437418;32;20097;-71
2022/07/02 08:46:23;;;;;;;0.35;0.35;;;22.20;97.90;;;;;;4442802;32;20382;-71
2022/07/02 08:48:50;;;;;;;0.20;0.20;;;22.30;96.90;;;;;;4441587;32;20095;-71
2022/07/02 08:51:20;;;;;;;0.10;0.10;;;22.60;97.90;;;;;;4433985;32;20221;-71
2022/07/02 08:53:46;;;;;;;0.10;0.10;;;22.90;96.00;;;;;;4415654;32;20126;-70
2022/07/02 08:56:13;;;;;;;1.02;0.55;;;23.00;94.60;;;;;;4441168;32;20124;-71
2022/07/02 08:58:38;;;;;;;3.97;0.35;;;23.00;94.70;;;;;;4439583;32;20061;-71
2022/07/02 09:01:05;;;;;;;5.47;0.90;;;23.00;94.60;;;;;;4442226;32;20092;-71
2022/07/02 09:03:32;;;;;;;0.28;0.28;;;22.70;93.20;;;;;;4440793;32;20069;-70
2022/07/02 09:05:58;;;;;;;0.20;0.20;;;22.50;94.00;;;;;;4449964;32;20088;-71
2022/07/02 09:08:24;;;;;;;0.30;0.30;;;22.60;93.70;;;;;;4448116;32;20063;-71
2022/07/02 09:10:52;;;;;;;0.30;0.30;;;22.60;93.50;;;;;;4443948;32;20069;-71
2022/07/02 09:13:18;;;;;;;0.10;0.10;;;22.80;94.20;;;;;;4443036;32;20085;-71
2022/07/02 09:15:44;;;;;;;0.20;0.20;;;23.00;93.50;;;;;;4440217;32;20076;-71
2022/07/02 09:18:11;;;;;;;1.27;0.60;;;23.00;93.00;;;;;;4440805;32;20759;-71
2022/07/02 09:20:37;;;;;;;1.35;0.60;;;23.10;93.20;;;;;;4438224;32;20521;-71
2022/07/02 09:23:09;;;;;;;0.20;0.20;;;23.50;94.50;;;;;;4420630;32;20119;-71
2022/07/02 09:25:34;;;;;;;0.10;0.10;;;23.70;93.70;;;;;;4429403;32;20077;-71
2022/07/02 09:28:04;;;;;;;0.30;0.30;;;23.60;92.80;;;;;;4439886;32;20057;-71
2022/07/02 09:30:35;;;;;;;0.30;0.30;;;23.50;92.60;;;;;;4440783;32;20491;-71
2022/07/02 09:33:32;;;;;;;0.28;0.28;;;23.60;92.10;;;;;;4437894;32;20082;-71
2022/07/02 09:35:46;;;;;;;2.00;0.45;;;23.60;92.40;;;;;;4435218;32;20096;-70
2022/07/02 09:38:12;;;;;;;0.57;0.57;;;23.70;91.90;;;;;;4439275;32;20473;-71
2022/07/02 09:40:39;;;;;;;0.22;0.22;;;23.70;92.00;;;;;;4445850;32;20079;-71
2022/07/02 09:43:05;;;;;;;0.20;0.20;;;23.40;91.80;;;;;;4439739;32;20151;-71
2022/07/02 09:45:30;;;;;;;6.43;1.02;;;23.40;92.50;;;;;;4442498;32;20533;-70
2022/07/02 09:48:01;;;;;;;0.13;0.13;;;23.60;92.40;;;;;;4441491;32;20532;-71
2022/07/02 09:50:26;;;;;;;0.20;0.20;;;23.80;91.20;;;;;;4436647;32;20071;-71
2022/07/02 09:52:54;;;;;;;0.20;0.20;;;23.90;91.80;;;;;;4415208;32;20470;-71
2022/07/02 09:55:25;;;;;;;0.13;0.13;;;24.00;91.60;;;;;;4426599;32;20073;-71
2022/07/02 09:57:54;;;;;;;0.52;0.43;;;24.20;91.70;;;;;;4443026;32;20544;-71
2022/07/02 10:00:21;;;;;;;0.30;0.30;;;24.50;91.20;;;;;;4436659;32;20073;-71
2022/07/02 10:02:51;;;;;;;0.20;0.20;;;24.50;90.90;;;;;;4437678;32;20147;-71
2022/07/02 10:05:26;;;;;;;0.20;0.20;;;24.70;90.60;;;;;;4440907;32;20069;-71
2022/07/02 10:07:53;;;;;;;0.20;0.20;;;24.90;90.40;;;;;;4436220;32;20069;-71
2022/07/02 10:10:25;;;;;;;0.30;0.30;;;24.90;90.30;;;;;;4443632;32;20406;-71
2022/07/02 10:12:51;;;;;;;0.00;0.00;;;24.90;87.50;;;;;;4437915;32;20073;-71
2022/07/02 10:15:21;;;;;;;0.15;0.15;;;24.90;89.40;;;;;;4441856;32;20532;-71
2022/07/02 10:17:47;;;;;;;0.20;0.20;;;25.30;87.00;;;;;;4437282;32;20064;-71
2022/07/02 10:20:13;;;;;;;0.10;0.10;;;25.40;85.80;;;;;;4441930;32;20080;-71
2022/07/02 10:22:38;;;;;;;0.20;0.20;;;25.40;84.30;;;;;;4418162;32;20387;-71
2022/07/02 10:25:05;;;;;;;0.30;0.30;;;25.40;83.40;;;;;;4429698;32;20125;-71
2022/07/02 10:27:31;;;;;;;0.75;0.30;;;25.50;85.00;;;;;;4444586;32;20108;-71
2022/07/02 10:29:57;;;;;;;0.10;0.10;;;25.60;83.30;;;;;;4439013;32;20061;-71
2022/07/02 10:33:02;;;;;;;0.05;0.05;;;25.80;82.70;;;;;;4440881;32;20456;-71
2022/07/02 10:35:29;;;;;;;0.65;0.30;;;26.00;80.80;;;;;;4431662;32;20082;-71
2022/07/02 10:37:59;;;;;;;0.10;0.10;;;26.30;81.30;;;;;;4443010;32;20101;-71
2022/07/02 10:40:25;;;;;;;;;;;26.50;79.10;;;;;;4442799;32;20528;-71
2022/07/02 10:42:53;;;;;;;0.30;0.30;;;26.70;79.50;;;;;;4435883;32;19956;-71
2022/07/02 10:45:21;;;;;;;0.20;0.20;;;26.80;80.30;;;;;;4439918;32;20101;-71
2022/07/02 10:48:03;;;;;;;0.10;0.10;;;26.90;78.00;;;;;;4434102;32;20050;-71
2022/07/02 10:50:39;;;;;;;0.10;0.10;;;26.50;79.50;;;;;;4440734;32;20065;-71
2022/07/02 10:53:22;;;;;;;0.00;0.00;;;26.20;78.90;;;;;;4416168;32;20269;-71
2022/07/02 10:55:54;;;;;;;0.17;0.17;;;26.70;78.40;;;;;;4434110;32;20088;-71
2022/07/02 10:58:22;;;;;;;0.32;0.22;;;26.60;76.10;;;;;;4438775;32;20431;-71
2022/07/02 11:00:48;;;;;;;0.10;0.10;;;26.50;75.00;;;;;;4436842;32;20095;-71
2022/07/02 11:03:17;;;;;;;0.30;0.10;;;26.40;74.10;;;;;;4438079;32;20128;-71
2022/07/02 11:06:04;;;;;;;0.28;0.28;;;26.80;78.50;;;;;;4441481;32;20130;-71
2022/07/02 11:08:46;;;;;;;0.00;0.00;;;27.30;76.10;;;;;;4434975;32;20109;-71
2022/07/02 11:11:17;;;;;;;0.15;0.10;;;27.60;74.10;;;;;;4430324;32;20208;-71
2022/07/02 11:13:45;;;;;;;;;;;28.00;74.10;;;;;;4437502;32;20220;-71
2022/07/02 11:16:24;;;;;;;3.30;0.30;;;28.30;76.10;;;;;;4434172;32;19970;-71
2022/07/02 11:18:52;;;;;;;0.10;0.10;;;28.60;73.40;;;;;;4433013;32;20053;-71
2022/07/02 11:21:18;;;;;;;0.10;0.10;;;28.60;71.20;;;;;;4429391;32;20548;-71
2022/07/02 11:23:44;;;;;;;0.10;0.10;;;28.80;70.30;;;;;;4414448;32;20195;-72
2022/07/02 11:26:14;;;;;;;0.22;0.22;;;28.70;70.40;;;;;;4436214;32;20093;-72
2022/07/02 11:28:39;;;;;;;0.20;0.20;;;28.50;70.80;;;;;;4439361;32;20080;-71
2022/07/02 11:31:06;;;;;;;0.65;0.50;;;28.80;74.40;;;;;;4442875;32;20092;-72
2022/07/02 11:33:32;;;;;;;0.28;0.20;;;29.20;70.20;;;;;;4444810;32;20265;-71
2022/07/02 11:35:57;;;;;;;0.10;0.10;;;29.20;67.10;;;;;;4439585;32;20081;-72
2022/07/02 11:38:23;;;;;;;0.10;0.10;;;29.00;68.20;;;;;;4442199;32;20505;-71
2022/07/02 11:40:49;;;;;;;0.10;0.10;;;29.00;66.20;;;;;;4444447;32;20096;-72
2022/07/02 11:43:15;;;;;;;0.32;0.32;;;28.30;67.00;;;;;;4437958;32;20316;-71
2022/07/02 11:45:43;;;;;;;0.15;0.15;;;28.20;69.50;;;;;;4439155;32;20535;-71
2022/07/02 11:48:18;;;;;;;0.25;0.25;;;27.90;66.70;;;;;;4440326;32;20127;-71
2022/07/02 11:50:44;;;;;;;0.20;0.20;;;27.70;68.80;;;;;;4435756;32;20135;-71
2022/07/02 11:53:09;;;;;;;0.20;0.20;;;28.00;70.30;;;;;;4424340;32;20069;-72
2022/07/02 11:55:35;;;;;;;0.10;0.10;;;28.70;67.60;;;;;;4436879;32;20089;-71
2022/07/02 11:58:00;;;;;;;0.20;0.20;;;29.20;66.30;;;;;;4446529;32;20085;-72
2022/07/02 12:00:31;;;;;;;0.17;0.17;;;28.80;66.40;;;;;;4435521;32;20468;-72
2022/07/02 12:02:56;;;;;;;0.20;0.20;;;28.20;68.80;;;;;;4435570;32;20081;-71
2022/07/02 12:05:22;;;;;;;0.10;0.10;;;27.60;68.90;;;;;;4443864;32;20184;-71
2022/07/02 12:07:47;;;;;;;0.10;0.10;;;27.40;68.40;;;;;;4440974;32;20136;-71
2022/07/02 12:10:14;;;;;;;0.20;0.20;;;27.10;70.00;;;;;;4438653;32;20092;-71
2022/07/02 12:12:40;;;;;;;0.10;0.10;;;27.80;72.20;;;;;;4440156;32;20149;-71
2022/07/02 12:15:07;;;;;;;0.10;0.10;;;28.80;67.80;;;;;;4440036;32;20073;-71
2022/07/02 12:17:35;;;;;;;0.20;0.20;;;29.80;66.90;;;;;;4441954;32;20082;-71
2022/07/02 12:20:03;;;;;;;0.30;0.30;;;30.30;65.70;;;;;;4431985;32;20097;-71
2022/07/02 12:22:29;;;;;;;0.28;0.28;;;30.60;61.40;;;;;;4423013;32;20085;-71
2022/07/02 12:24:55;;;;;;;0.30;0.30;;;30.50;61.90;;;;;;4424126;32;20089;-72
2022/07/02 12:27:23;;;;;;;0.10;0.10;;;30.80;61.30;;;;;;4442156;32;20450;-72
2022/07/02 12:29:53;;;;;;;0.28;0.28;;;31.20;61.10;;;;;;4438310;32;20108;-72
2022/07/02 12:32:21;;;;;;;0.93;0.30;;;31.20;59.10;;;;;;4436868;32;20158;-72
2022/07/02 12:34:49;;;;;;;0.20;0.20;;;30.90;60.70;;;;;;4445895;32;20483;-71
2022/07/02 12:37:25;;;;;;;0.15;0.15;;;29.80;63.00;;;;;;4438008;32;20080;-71
2022/07/02 12:40:01;;;;;;;0.10;0.10;;;29.20;64.90;;;;;;4438893;32;20089;-71
2022/07/02 12:42:28;;;;;;;0.80;0.47;;;28.30;65.50;;;;;;4439632;32;20514;-71
2022/07/02 12:44:59;;;;;;;0.20;0.20;;;27.80;64.20;;;;;;4439651;32;20061;-71